📊 Raw Sensor Data

Showing records 37201 to 37225 of 84,908 total

ID Distance (ft) Battery V Battery A Int Temp (°F) Int Humid (%) Ext Temp (°F) Solar V RSSI SNR Time Stamp
47720 15.4 3.88 -5 67 51 67 0.00 -69 7 07/29/2025 09:15 PM
47719 15.4 3.95 -5 68 52 68 0.00 -69 8 07/29/2025 09:00 PM
47718 15.4 3.88 -5 69 53 68 0.00 -69 8 07/29/2025 08:45 PM
47717 15.4 3.88 -5 71 55 69 1.30 -69 8 07/29/2025 08:30 PM
47716 15.4 3.87 -10 74 56 71 3.20 -69 8 07/29/2025 08:15 PM
47715 15.4 3.89 0 78 58 73 4.60 -70 8 07/29/2025 08:00 PM
47714 15.5 3.97 0 85 54 79 4.50 -72 7 07/29/2025 07:45 PM
47713 15.5 3.98 8 89 53 82 4.50 -69 7 07/29/2025 07:30 PM
47712 15.6 3.94 -11 91 52 83 4.50 -71 8 07/29/2025 07:15 PM
47711 15.5 4.01 20 93 52 85 4.60 -72 7 07/29/2025 07:00 PM
47710 15.6 3.94 6 94 52 85 5.10 -70 8 07/29/2025 06:45 PM
47709 15.6 3.94 0 96 51 87 5.10 -70 8 07/29/2025 06:30 PM
47708 15.6 3.94 6 97 51 89 5.10 -71 8 07/29/2025 06:15 PM
47707 15.6 3.94 6 98 50 89 5.10 -70 8 07/29/2025 06:00 PM
47706 15.6 3.94 0 100 50 91 5.10 -70 8 07/29/2025 05:45 PM
47705 15.6 3.94 6 101 49 91 5.10 -70 8 07/29/2025 05:30 PM
47704 15.6 3.94 6 102 48 92 5.10 -70 7 07/29/2025 05:15 PM
47703 15.6 4.01 0 103 47 95 5.10 -68 8 07/29/2025 05:00 PM
47702 15.6 3.94 6 103 47 94 5.10 -70 8 07/29/2025 04:45 PM
47701 15.6 3.94 6 103 46 94 5.10 -70 8 07/29/2025 04:30 PM
47700 15.6 3.94 0 104 46 94 5.10 -70 8 07/29/2025 04:15 PM
47699 15.6 3.94 0 104 45 94 5.10 -69 8 07/29/2025 04:00 PM
47698 15.6 3.94 6 104 45 95 5.10 -71 8 07/29/2025 03:45 PM
47697 15.6 3.94 0 104 44 96 5.10 -72 7 07/29/2025 03:30 PM
47696 15.6 3.94 6 104 43 94 5.10 -71 8 07/29/2025 03:15 PM